Minot, North Dakota
Current Conditions -  °F | °C
As of 2:54 PM on Saturday 20 Dec 2014 (Local Time) from KMOT Reporting Station
Haze Haze  
Wind Chill: 28°   Ceiling: Unl
Heat Index: 28°   Visibility: 6mi
Dew Point: 25°   Wind: 3mph
Humidity: 88%   Direction: 110°ESE
Pressure: 29.78"   Gusts: NA
Location:  48.24°N, 101.29°W
Report Text: KMOT 202054Z 11003KT 6SM BR SCT050 M02/M04 A2978 RMK AO2 SLP112 T10221039 56019
Loading
Personal Weather Stations






























Interactive Weather Map New forecast layout! Learn more

10-Day Weather Forecast

Advertisements
Track Severe Weather on mobile